Time;durP1;ratioP1;P1;durP2;ratioP2;P2;SDS_P1;SDS_P2;PMS_P1;PMS_P2;Temp;Humidity;BMP_temperature;BMP_pressure;BME280_temperature;BME280_humidity;BME280_pressure;Samples;Min_cycle;Max_cycle;Signal;HPM_P1;HPM_P2
2023/04/21 00:00:55;;;;;;;3.42;2.97;;;;;;;;;;5094123;28;20055;-84
2023/04/21 00:03:22;;;;;;;3.72;2.70;;;;;;;;;;5075957;28;20028;-85
2023/04/21 00:05:48;;;;;;;4.28;2.78;;;;;;;;;;5076286;28;20020;-85
2023/04/21 00:08:14;;;;;;;4.07;2.70;;;;;;;;;;5059161;28;20031;-85
2023/04/21 00:10:39;;;;;;;3.45;2.72;;;;;;;;;;5094043;28;20032;-85
2023/04/21 00:13:05;;;;;;;4.97;3.10;;;;;;;;;;5093680;28;20062;-85
2023/04/21 00:15:30;;;;;;;4.68;2.85;;;;;;;;;;5076108;28;20032;-85
2023/04/21 00:17:57;;;;;;;3.85;3.45;;;;;;;;;;5075855;28;20024;-84
2023/04/21 00:20:25;;;;;;;4.00;2.78;;;;;;;;;;5093947;28;20028;-84
2023/04/21 00:22:54;;;;;;;3.80;2.97;;;;;;;;;;5060215;28;20035;-84
2023/04/21 00:25:20;;;;;;;4.35;3.08;;;;;;;;;;5058886;28;20107;-84
2023/04/21 00:27:45;;;;;;;4.72;3.05;;;;;;;;;;5059002;28;20127;-84
2023/04/21 00:30:10;;;;;;;3.65;2.90;;;;;;;;;;5075567;28;20060;-84
2023/04/21 00:32:36;;;;;;;3.33;2.67;;;;;;;;;;5075600;28;20039;-83
2023/04/21 00:35:02;;;;;;;4.10;2.97;;;;;;;;;;5075541;28;20040;-84
2023/04/21 00:37:27;;;;;;;3.30;2.95;;;;;;;;;;5075707;28;20032;-84
2023/04/21 00:39:52;;;;;;;3.70;3.10;;;;;;;;;;5093600;28;20028;-85
2023/04/21 00:42:18;;;;;;;4.05;3.10;;;;;;;;;;5075339;28;20427;-84
2023/04/21 00:44:43;;;;;;;4.22;3.17;;;;;;;;;;5075337;28;20139;-84
2023/04/21 00:47:09;;;;;;;5.00;3.38;;;;;;;;;;5075299;28;20032;-85
2023/04/21 00:49:34;;;;;;;3.25;2.95;;;;;;;;;;5058521;28;20034;-84
2023/04/21 00:52:00;;;;;;;3.67;3.30;;;;;;;;;;5075495;28;20031;-84
2023/04/21 00:54:26;;;;;;;4.55;3.17;;;;;;;;;;5075401;28;20032;-83
2023/04/21 00:56:51;;;;;;;5.57;3.30;;;;;;;;;;5058375;28;20052;-84
2023/04/21 00:59:17;;;;;;;4.00;3.30;;;;;;;;;;5058500;28;20128;-84
2023/04/21 01:01:43;;;;;;;4.18;3.38;;;;;;;;;;5075240;28;20103;-84
2023/04/21 01:04:09;;;;;;;4.65;3.10;;;;;;;;;;5093416;28;20051;-84
2023/04/21 01:06:34;;;;;;;4.03;3.35;;;;;;;;;;5093184;28;20031;-84
2023/04/21 01:09:00;;;;;;;3.47;3.03;;;;;;;;;;5075155;28;20059;-84
2023/04/21 01:11:25;;;;;;;3.83;3.00;;;;;;;;;;5075206;28;20035;-84
2023/04/21 01:13:53;;;;;;;3.90;3.40;;;;;;;;;;5074815;28;20040;-84
2023/04/21 01:16:19;;;;;;;4.32;3.20;;;;;;;;;;5058525;28;20078;-83
2023/04/21 01:18:45;;;;;;;4.30;3.20;;;;;;;;;;5062340;28;20081;-83
2023/04/21 01:21:10;;;;;;;3.92;3.17;;;;;;;;;;5079457;28;20085;-83
2023/04/21 01:23:36;;;;;;;3.53;3.10;;;;;;;;;;5079115;28;20030;-83
2023/04/21 01:26:01;;;;;;;3.45;2.88;;;;;;;;;;5079169;28;20031;-83
2023/04/21 01:28:27;;;;;;;5.00;3.35;;;;;;;;;;5097292;28;20028;-84
2023/04/21 01:30:52;;;;;;;3.50;3.15;;;;;;;;;;5062230;28;20028;-84
2023/04/21 01:33:19;;;;;;;3.65;3.03;;;;;;;;;;5096854;28;20043;-84
2023/04/21 01:35:45;;;;;;;3.72;3.08;;;;;;;;;;5045809;28;20039;-83
2023/04/21 01:38:10;;;;;;;5.00;3.30;;;;;;;;;;5078754;28;20024;-83
2023/04/21 01:40:36;;;;;;;4.03;2.85;;;;;;;;;;5078963;28;20039;-83
2023/04/21 01:43:02;;;;;;;5.25;3.13;;;;;;;;;;5078739;28;20417;-84
2023/04/21 01:45:29;;;;;;;4.18;3.28;;;;;;;;;;5078812;28;20026;-84
2023/04/21 01:47:54;;;;;;;3.63;2.95;;;;;;;;;;5078660;28;20073;-84
2023/04/21 01:50:20;;;;;;;5.80;3.38;;;;;;;;;;5078362;28;20341;-83
2023/04/21 01:52:45;;;;;;;4.32;3.47;;;;;;;;;;5078879;28;20075;-85
2023/04/21 01:55:11;;;;;;;3.95;3.33;;;;;;;;;;5078637;28;20028;-85
2023/04/21 01:57:36;;;;;;;4.90;3.50;;;;;;;;;;5078514;28;20115;-84
2023/04/21 02:00:02;;;;;;;5.97;3.60;;;;;;;;;;5078467;28;20081;-84
2023/04/21 02:02:28;;;;;;;3.13;2.83;;;;;;;;;;5096747;28;20110;-85
2023/04/21 02:04:54;;;;;;;4.40;3.50;;;;;;;;;;5096375;28;20055;-85
2023/04/21 02:07:19;;;;;;;4.43;3.20;;;;;;;;;;5078554;28;20029;-85
2023/04/21 02:09:45;;;;;;;4.25;3.45;;;;;;;;;;5061475;28;20077;-85
2023/04/21 02:12:10;;;;;;;4.25;3.38;;;;;;;;;;5061285;28;20063;-85
2023/04/21 02:14:36;;;;;;;3.83;3.25;;;;;;;;;;5077896;28;20108;-85
2023/04/21 02:17:02;;;;;;;3.42;3.10;;;;;;;;;;5078117;28;20042;-84
2023/04/21 02:19:28;;;;;;;4.20;3.50;;;;;;;;;;5078188;28;20080;-85
2023/04/21 02:21:53;;;;;;;3.55;3.20;;;;;;;;;;5078143;28;20036;-84
2023/04/21 02:24:19;;;;;;;3.35;2.90;;;;;;;;;;5077779;28;20036;-84
2023/04/21 02:26:44;;;;;;;3.95;3.20;;;;;;;;;;5077656;28;20094;-84
2023/04/21 02:29:09;;;;;;;3.67;3.20;;;;;;;;;;5076462;28;20062;-84
2023/04/21 02:31:35;;;;;;;4.32;3.42;;;;;;;;;;5077904;28;20071;-85
2023/04/21 02:34:00;;;;;;;4.03;3.35;;;;;;;;;;5095788;28;20035;-84
2023/04/21 02:36:26;;;;;;;4.30;3.10;;;;;;;;;;5077713;28;20039;-85
2023/04/21 02:38:51;;;;;;;4.20;3.60;;;;;;;;;;5095793;28;20028;-84
2023/04/21 02:41:16;;;;;;;4.07;3.33;;;;;;;;;;5095682;28;20038;-84
2023/04/21 02:43:42;;;;;;;4.07;3.40;;;;;;;;;;5095641;28;20028;-84
2023/04/21 02:46:08;;;;;;;4.72;3.50;;;;;;;;;;5077531;28;20024;-84
2023/04/21 02:48:34;;;;;;;3.83;3.15;;;;;;;;;;5060682;28;20027;-84
2023/04/21 02:50:59;;;;;;;5.13;3.53;;;;;;;;;;5077750;28;20490;-84
2023/04/21 02:53:25;;;;;;;3.95;3.28;;;;;;;;;;5096035;28;20032;-84
2023/04/21 02:55:51;;;;;;;5.25;3.80;;;;;;;;;;5077336;28;20024;-84
2023/04/21 02:58:16;;;;;;;4.05;3.10;;;;;;;;;;5077447;28;20032;-84
2023/04/21 03:00:41;;;;;;;4.65;3.67;;;;;;;;;;5077127;28;20063;-84
2023/04/21 03:03:07;;;;;;;4.32;3.42;;;;;;;;;;5095276;28;20028;-83
2023/04/21 03:05:32;;;;;;;3.90;3.50;;;;;;;;;;5077067;28;20032;-84
2023/04/21 03:07:57;;;;;;;4.22;3.20;;;;;;;;;;5077023;28;20028;-84
2023/04/21 03:10:23;;;;;;;3.88;3.40;;;;;;;;;;5076754;28;20116;-83
2023/04/21 03:12:48;;;;;;;4.10;3.50;;;;;;;;;;5094546;28;20052;-84
2023/04/21 03:15:15;;;;;;;5.68;3.42;;;;;;;;;;5060276;28;20440;-83
2023/04/21 03:17:41;;;;;;;8.75;3.53;;;;;;;;;;5077093;28;20048;-83
2023/04/21 03:20:08;;;;;;;3.55;3.08;;;;;;;;;;5076786;28;20062;-83
2023/04/21 03:22:37;;;;;;;4.38;3.50;;;;;;;;;;5077224;28;20036;-83
2023/04/21 03:25:03;;;;;;;3.83;3.22;;;;;;;;;;5094626;28;20111;-83
2023/04/21 03:27:29;;;;;;;4.40;3.40;;;;;;;;;;5094585;28;20024;-84
2023/04/21 03:29:55;;;;;;;6.32;3.55;;;;;;;;;;5076423;28;20409;-84
2023/04/21 03:32:20;;;;;;;4.28;3.40;;;;;;;;;;5059757;28;20122;-85
2023/04/21 03:34:46;;;;;;;4.25;3.40;;;;;;;;;;5076460;28;20031;-84
2023/04/21 03:37:11;;;;;;;4.22;3.35;;;;;;;;;;5059737;28;20076;-84
2023/04/21 03:39:36;;;;;;;4.82;3.60;;;;;;;;;;5076275;28;20028;-84
2023/04/21 03:42:03;;;;;;;4.55;3.53;;;;;;;;;;5076759;28;20047;-84
2023/04/21 03:44:29;;;;;;;3.65;3.33;;;;;;;;;;5076649;28;20127;-83
2023/04/21 03:46:56;;;;;;;4.70;3.53;;;;;;;;;;5076309;28;20055;-83
2023/04/21 03:49:22;;;;;;;4.05;3.42;;;;;;;;;;5076700;28;20495;-83
2023/04/21 03:51:47;;;;;;;4.97;3.30;;;;;;;;;;5076135;28;20028;-83
2023/04/21 03:54:12;;;;;;;4.78;3.30;;;;;;;;;;5094183;28;20020;-83
2023/04/21 03:56:38;;;;;;;3.92;3.20;;;;;;;;;;5076107;28;20036;-82
2023/04/21 03:59:04;;;;;;;3.70;3.25;;;;;;;;;;5094371;28;20398;-83
2023/04/21 04:01:30;;;;;;;4.47;3.60;;;;;;;;;;5094027;28;20028;-84
2023/04/21 04:03:55;;;;;;;3.88;3.40;;;;;;;;;;5094335;28;20026;-83
2023/04/21 04:06:20;;;;;;;4.20;3.33;;;;;;;;;;5076086;28;20497;-85
2023/04/21 04:08:46;;;;;;;4.53;3.25;;;;;;;;;;5076067;28;20039;-84
2023/04/21 04:11:11;;;;;;;3.63;3.22;;;;;;;;;;5059329;28;20027;-85
2023/04/21 04:13:36;;;;;;;3.40;3.10;;;;;;;;;;5094063;28;20093;-85
2023/04/21 04:16:02;;;;;;;4.47;3.47;;;;;;;;;;5076583;28;20362;-85
2023/04/21 04:18:27;;;;;;;3.95;3.55;;;;;;;;;;5075926;28;20028;-84
2023/04/21 04:20:52;;;;;;;3.60;3.00;;;;;;;;;;5075875;28;20472;-84
2023/04/21 04:23:18;;;;;;;3.75;3.35;;;;;;;;;;5094833;28;20046;-84
2023/04/21 04:25:44;;;;;;;4.45;3.20;;;;;;;;;;5076024;28;20028;-83
2023/04/21 04:28:11;;;;;;;3.55;3.03;;;;;;;;;;5094104;28;20530;-83
2023/04/21 04:30:36;;;;;;;7.97;3.22;;;;;;;;;;5059206;28;20123;-82
2023/04/21 04:33:02;;;;;;;5.70;3.72;;;;;;;;;;5076077;28;20115;-84
2023/04/21 04:35:27;;;;;;;4.38;3.33;;;;;;;;;;5093690;28;20025;-84
2023/04/21 04:37:53;;;;;;;9.48;3.42;;;;;;;;;;5093824;28;20457;-83
2023/04/21 04:40:19;;;;;;;6.72;4.00;;;;;;;;;;5042433;28;20152;-84
2023/04/21 04:42:47;;;;;;;7.13;3.80;;;;;;;;;;5059568;28;20498;-82
2023/04/21 04:45:13;;;;;;;8.65;3.97;;;;;;;;;;5093645;28;20020;-84
2023/04/21 04:47:39;;;;;;;6.80;3.70;;;;;;;;;;5076145;28;20031;-85
2023/04/21 04:50:05;;;;;;;3.85;3.25;;;;;;;;;;5058742;28;20032;-84
2023/04/21 04:52:31;;;;;;;5.32;3.25;;;;;;;;;;5093312;28;20107;-85
2023/04/21 04:54:56;;;;;;;7.03;3.60;;;;;;;;;;5075341;28;20111;-82
2023/04/21 04:57:22;;;;;;;4.72;3.20;;;;;;;;;;5092811;28;20344;-82
2023/04/21 04:59:47;;;;;;;9.60;3.97;;;;;;;;;;5075003;28;20062;-82
2023/04/21 05:02:13;;;;;;;4.97;3.35;;;;;;;;;;5074901;28;20054;-82
2023/04/21 05:04:38;;;;;;;5.00;3.22;;;;;;;;;;5074394;28;20028;-83
2023/04/21 05:07:06;;;;;;;5.45;2.90;;;;;;;;;;5093414;28;20149;-82
2023/04/21 05:09:32;;;;;;;3.97;2.90;;;;;;;;;;5094435;28;20390;-82
2023/04/21 05:11:57;;;;;;;5.10;3.20;;;;;;;;;;5075400;28;20119;-81
2023/04/21 05:14:22;;;;;;;4.70;3.03;;;;;;;;;;5075183;28;20475;-81
2023/04/21 05:16:48;;;;;;;5.47;3.22;;;;;;;;;;5093581;28;20028;-84
2023/04/21 05:19:13;;;;;;;11.60;3.28;;;;;;;;;;5058739;28;20070;-85
2023/04/21 05:21:39;;;;;;;4.95;3.10;;;;;;;;;;5094241;28;20085;-83
2023/04/21 05:24:04;;;;;;;3.60;2.95;;;;;;;;;;5076093;28;20031;-83
2023/04/21 05:26:30;;;;;;;3.72;2.90;;;;;;;;;;5094387;28;20032;-84
2023/04/21 05:28:56;;;;;;;9.63;3.20;;;;;;;;;;5094058;28;20111;-84
2023/04/21 05:31:22;;;;;;;4.05;3.05;;;;;;;;;;5077386;28;20028;-83
2023/04/21 05:33:48;;;;;;;5.07;3.10;;;;;;;;;;5075697;28;20024;-83
2023/04/21 05:36:13;;;;;;;4.22;3.00;;;;;;;;;;5058941;28;20119;-83
2023/04/21 05:38:39;;;;;;;9.95;3.55;;;;;;;;;;5075374;28;20062;-84
2023/04/21 05:41:05;;;;;;;13.48;3.38;;;;;;;;;;5075469;28;20383;-84
2023/04/21 05:43:33;;;;;;;3.58;2.80;;;;;;;;;;5075543;28;20024;-83
2023/04/21 05:46:03;;;;;;;4.32;2.90;;;;;;;;;;5058522;28;20024;-83
2023/04/21 05:48:28;;;;;;;3.80;2.67;;;;;;;;;;5074860;28;20505;-83
2023/04/21 05:50:54;;;;;;;4.45;2.85;;;;;;;;;;5074792;28;20032;-83
2023/04/21 05:53:22;;;;;;;3.85;2.75;;;;;;;;;;5074651;28;20032;-83
2023/04/21 05:55:48;;;;;;;4.57;3.47;;;;;;;;;;5075304;28;20115;-83
2023/04/21 05:58:13;;;;;;;3.25;2.95;;;;;;;;;;5075474;28;20111;-83
2023/04/21 06:00:38;;;;;;;4.10;3.20;;;;;;;;;;5074965;28;20474;-86
2023/04/21 06:03:04;;;;;;;7.45;2.97;;;;;;;;;;5076045;28;20107;-87
2023/04/21 06:05:29;;;;;;;4.30;3.10;;;;;;;;;;5078148;28;20497;-82
2023/04/21 06:07:55;;;;;;;5.20;3.60;;;;;;;;;;5078316;28;20028;-81
2023/04/21 06:10:20;;;;;;;8.52;3.25;;;;;;;;;;5062106;28;20024;-85
2023/04/21 06:12:46;;;;;;;5.05;3.42;;;;;;;;;;5061654;28;20410;-84
2023/04/21 06:15:11;;;;;;;6.43;3.38;;;;;;;;;;5096262;28;20077;-84
2023/04/21 06:17:36;;;;;;;6.85;3.20;;;;;;;;;;5078325;28;20103;-88
2023/04/21 06:20:03;;;;;;;6.65;3.50;;;;;;;;;;5044892;28;20539;-87
2023/04/21 06:22:28;;;;;;;6.22;3.42;;;;;;;;;;5079167;28;20032;-90
2023/04/21 06:24:53;;;;;;;5.05;3.38;;;;;;;;;;5062345;28;20157;-87
2023/04/21 06:27:19;;;;;;;4.75;3.10;;;;;;;;;;5077762;28;20059;-87
2023/04/21 06:29:44;;;;;;;6.78;2.95;;;;;;;;;;5061101;28;20031;-88
2023/04/21 06:32:10;;;;;;;3.50;2.70;;;;;;;;;;5077707;28;20032;-86
2023/04/21 06:34:36;;;;;;;4.95;2.65;;;;;;;;;;5060934;28;20471;-86
2023/04/21 06:37:01;;;;;;;4.63;2.70;;;;;;;;;;5095620;28;20148;-86
2023/04/21 06:39:27;;;;;;;3.70;2.80;;;;;;;;;;5077385;28;20467;-86
2023/04/21 06:41:52;;;;;;;5.95;3.33;;;;;;;;;;5060367;28;20031;-84
2023/04/21 06:44:18;;;;;;;5.20;2.88;;;;;;;;;;5077381;28;20042;-85
2023/04/21 06:46:43;;;;;;;8.40;3.10;;;;;;;;;;5095440;28;20546;-85
2023/04/21 06:49:08;;;;;;;5.97;2.90;;;;;;;;;;5095398;28;20032;-86
2023/04/21 06:51:34;;;;;;;3.75;2.78;;;;;;;;;;5076967;28;20123;-84
2023/04/21 06:54:00;;;;;;;8.90;3.13;;;;;;;;;;5060380;28;20032;-89
2023/04/21 06:56:26;;;;;;;8.45;3.55;;;;;;;;;;5060431;28;20406;-86
2023/04/21 06:58:51;;;;;;;7.57;3.63;;;;;;;;;;5076755;28;20394;-86
2023/04/21 07:01:17;;;;;;;5.35;3.38;;;;;;;;;;5095122;28;20103;-85
2023/04/21 07:03:42;;;;;;;11.02;2.80;;;;;;;;;;5077490;28;20020;-86
2023/04/21 07:06:08;;;;;;;9.82;3.22;;;;;;;;;;5043828;28;20024;-86
2023/04/21 07:08:33;;;;;;;6.95;3.60;;;;;;;;;;5095026;28;20039;-84
2023/04/21 07:10:59;;;;;;;4.85;3.38;;;;;;;;;;5060556;28;20500;-87
2023/04/21 07:13:24;;;;;;;3.90;3.10;;;;;;;;;;5076986;28;20114;-86
2023/04/21 07:15:50;;;;;;;5.82;3.60;;;;;;;;;;5076385;28;20035;-88
2023/04/21 07:18:15;;;;;;;6.28;3.35;;;;;;;;;;5076836;28;20036;-86
2023/04/21 07:20:41;;;;;;;14.27;3.55;;;;;;;;;;5060214;28;20073;-86
2023/04/21 07:23:06;;;;;;;6.20;4.03;;;;;;;;;;5076998;28;20126;-86
2023/04/21 07:25:31;;;;;;;5.97;3.75;;;;;;;;;;5095163;28;20016;-87
2023/04/21 07:27:57;;;;;;;6.75;4.25;;;;;;;;;;5062629;28;20028;-87
2023/04/21 07:30:22;;;;;;;9.05;4.28;;;;;;;;;;5078223;28;20045;-86
2023/04/21 07:32:48;;;;;;;9.48;4.03;;;;;;;;;;5112873;28;20035;-85
2023/04/21 07:35:13;;;;;;;9.25;4.50;;;;;;;;;;5079600;28;20028;-86
2023/04/21 07:37:39;;;;;;;8.27;4.65;;;;;;;;;;5073033;28;20033;-86
2023/04/21 07:40:06;;;;;;;10.68;4.88;;;;;;;;;;5072692;28;20032;-87
2023/04/21 07:42:32;;;;;;;10.18;5.00;;;;;;;;;;5072480;28;20403;-85
2023/04/21 07:44:59;;;;;;;13.32;4.55;;;;;;;;;;5072676;28;20020;-87
2023/04/21 07:47:25;;;;;;;4.70;4.05;;;;;;;;;;5082570;28;20508;-85
2023/04/21 07:49:50;;;;;;;7.97;5.00;;;;;;;;;;5079231;28;20035;-85
2023/04/21 07:52:16;;;;;;;10.27;4.55;;;;;;;;;;5057764;28;20052;-84
2023/04/21 07:54:41;;;;;;;7.40;4.72;;;;;;;;;;5072779;28;20027;-85
2023/04/21 07:57:07;;;;;;;10.60;4.68;;;;;;;;;;5085554;28;20038;-83
2023/04/21 07:59:32;;;;;;;11.07;4.10;;;;;;;;;;5068211;28;20467;-83
2023/04/21 08:01:57;;;;;;;6.80;3.92;;;;;;;;;;5106606;28;20106;-86
2023/04/21 08:04:23;;;;;;;8.88;4.97;;;;;;;;;;5064466;28;20089;-87
2023/04/21 08:06:48;;;;;;;7.90;4.72;;;;;;;;;;5077901;28;20476;-86
2023/04/21 08:09:14;;;;;;;7.10;4.57;;;;;;;;;;5080156;28;20055;-85
2023/04/21 08:11:39;;;;;;;5.45;4.45;;;;;;;;;;5114522;28;20153;-84
2023/04/21 08:14:05;;;;;;;7.32;4.53;;;;;;;;;;5096096;28;20391;-84
2023/04/21 08:16:31;;;;;;;7.85;4.50;;;;;;;;;;5080012;28;20038;-85
2023/04/21 08:18:56;;;;;;;6.43;4.60;;;;;;;;;;5114350;28;20027;-85
2023/04/21 08:21:22;;;;;;;8.73;4.72;;;;;;;;;;5096172;28;20153;-83
2023/04/21 08:23:48;;;;;;;7.97;5.07;;;;;;;;;;5078583;28;20069;-84
2023/04/21 08:26:14;;;;;;;10.25;4.80;;;;;;;;;;5094853;28;20052;-84
2023/04/21 08:28:39;;;;;;;9.18;5.03;;;;;;;;;;5079053;28;20024;-85
2023/04/21 08:31:05;;;;;;;7.05;4.57;;;;;;;;;;5096097;28;20038;-84
2023/04/21 08:33:30;;;;;;;6.90;4.40;;;;;;;;;;5114264;28;20433;-86
2023/04/21 08:35:55;;;;;;;7.85;5.00;;;;;;;;;;5115060;28;20027;-83
2023/04/21 08:38:21;;;;;;;5.47;4.72;;;;;;;;;;5114179;28;20031;-83
2023/04/21 08:40:48;;;;;;;7.25;4.57;;;;;;;;;;5114299;28;20485;-84
2023/04/21 08:43:13;;;;;;;7.97;5.03;;;;;;;;;;5079854;28;20028;-81
2023/04/21 08:45:40;;;;;;;11.30;5.47;;;;;;;;;;5099319;28;20105;-84
2023/04/21 08:48:06;;;;;;;6.38;4.72;;;;;;;;;;5079287;28;20023;-83
2023/04/21 08:50:32;;;;;;;7.03;4.80;;;;;;;;;;5079123;28;20076;-85
2023/04/21 08:52:58;;;;;;;9.77;5.30;;;;;;;;;;5079528;28;20032;-83
2023/04/21 08:55:32;;;;;;;7.57;5.05;;;;;;;;;;5079120;28;20039;-85
2023/04/21 08:57:58;;;;;;;7.40;5.20;;;;;;;;;;5095802;28;20164;-82
2023/04/21 09:00:23;;;;;;;7.10;4.68;;;;;;;;;;5095650;28;20049;-83
2023/04/21 09:02:56;;;;;;;8.00;4.78;;;;;;;;;;5114157;28;20028;-83
2023/04/21 09:05:27;;;;;;;9.93;5.95;;;;;;;;;;5095917;28;20034;-82
2023/04/21 09:08:17;;;;;;;11.25;5.40;;;;;;;;;;5095599;28;20489;-83
2023/04/21 09:10:47;;;;;;;7.47;4.78;;;;;;;;;;5113755;28;20115;-83
2023/04/21 09:13:12;;;;;;;7.30;4.63;;;;;;;;;;5095391;28;20126;-83
2023/04/21 09:15:45;;;;;;;7.95;5.22;;;;;;;;;;5113835;28;20444;-83
2023/04/21 09:18:18;;;;;;;6.82;5.00;;;;;;;;;;5095970;28;20031;-82
2023/04/21 09:20:45;;;;;;;7.53;4.63;;;;;;;;;;5095462;28;20363;-82
2023/04/21 09:23:11;;;;;;;7.07;5.13;;;;;;;;;;5078694;28;20507;-82
2023/04/21 09:25:40;;;;;;;7.75;5.82;;;;;;;;;;5095089;28;20103;-83
2023/04/21 09:28:13;;;;;;;10.23;5.15;;;;;;;;;;5061855;28;20046;-82
2023/04/21 09:30:40;;;;;;;10.00;5.70;;;;;;;;;;5095460;28;20079;-81
2023/04/21 09:33:05;;;;;;;10.48;5.97;;;;;;;;;;5113831;28;20032;-84
2023/04/21 09:35:36;;;;;;;9.90;5.85;;;;;;;;;;5095302;28;20496;-83
2023/04/21 09:38:02;;;;;;;11.85;6.22;;;;;;;;;;5097085;28;20042;-83
2023/04/21 09:40:31;;;;;;;7.75;5.82;;;;;;;;;;5084052;28;20027;-83
2023/04/21 09:42:56;;;;;;;7.93;5.55;;;;;;;;;;5100070;28;20031;-83
2023/04/21 09:45:25;;;;;;;11.15;5.40;;;;;;;;;;5082561;28;20049;-83
2023/04/21 09:47:55;;;;;;;9.38;5.55;;;;;;;;;;5099100;28;20034;-83
2023/04/21 09:50:21;;;;;;;7.60;5.53;;;;;;;;;;5117416;28;20034;-83
2023/04/21 09:52:49;;;;;;;8.77;5.53;;;;;;;;;;5117926;28;20084;-82
2023/04/21 09:55:15;;;;;;;9.82;5.93;;;;;;;;;;5081705;28;20027;-82
2023/04/21 09:57:41;;;;;;;15.93;5.65;;;;;;;;;;5099036;28;20028;-83
2023/04/21 10:00:10;;;;;;;11.75;5.72;;;;;;;;;;5081855;28;20032;-83
2023/04/21 10:02:43;;;;;;;12.65;5.72;;;;;;;;;;5098860;28;20084;-83
2023/04/21 10:05:10;;;;;;;8.98;6.38;;;;;;;;;;5099122;28;20030;-83
2023/04/21 10:07:36;;;;;;;7.93;5.50;;;;;;;;;;5098907;28;20115;-83
2023/04/21 10:10:02;;;;;;;7.60;5.47;;;;;;;;;;5099028;28;20478;-83
2023/04/21 10:12:27;;;;;;;8.85;5.43;;;;;;;;;;5117001;28;20043;-83
2023/04/21 10:14:56;;;;;;;10.65;6.05;;;;;;;;;;5081597;28;20031;-83
2023/04/21 10:17:25;;;;;;;8.07;6.25;;;;;;;;;;5098289;28;20024;-84
2023/04/21 10:19:57;;;;;;;7.97;6.47;;;;;;;;;;5098422;28;20394;-83
2023/04/21 10:22:30;;;;;;;12.73;6.32;;;;;;;;;;5099095;28;20035;-82
2023/04/21 10:24:57;;;;;;;10.13;5.95;;;;;;;;;;5081352;28;20034;-82
2023/04/21 10:27:40;;;;;;;10.82;5.97;;;;;;;;;;5098296;28;20045;-84
2023/04/21 10:30:22;;;;;;;12.23;6.43;;;;;;;;;;5098576;28;20027;-83
2023/04/21 10:32:48;;;;;;;11.35;6.68;;;;;;;;;;5098324;28;20027;-83
2023/04/21 10:35:23;;;;;;;9.35;6.30;;;;;;;;;;5098300;28;20028;-83
2023/04/21 10:37:50;;;;;;;8.70;6.40;;;;;;;;;;5098255;28;20035;-83
2023/04/21 10:40:34;;;;;;;8.63;6.22;;;;;;;;;;5098469;28;20043;-83
2023/04/21 10:43:01;;;;;;;11.32;6.78;;;;;;;;;;5116789;28;20031;-83
2023/04/21 10:45:27;;;;;;;11.40;6.50;;;;;;;;;;5098386;28;20023;-83
2023/04/21 10:47:52;;;;;;;10.40;6.25;;;;;;;;;;5098042;28;20450;-83
2023/04/21 10:50:24;;;;;;;9.65;6.03;;;;;;;;;;5080986;28;20028;-82
2023/04/21 10:52:56;;;;;;;9.10;6.15;;;;;;;;;;5099277;28;20059;-83
2023/04/21 10:55:21;;;;;;;7.18;5.68;;;;;;;;;;5097839;28;20390;-83
2023/04/21 10:57:47;;;;;;;8.00;6.15;;;;;;;;;;5097918;28;20031;-83
2023/04/21 11:00:23;;;;;;;10.18;6.30;;;;;;;;;;5097572;28;20040;-83
2023/04/21 11:03:02;;;;;;;9.73;6.18;;;;;;;;;;5097594;28;20055;-84
2023/04/21 11:05:35;;;;;;;7.53;5.80;;;;;;;;;;5098411;28;20351;-83
2023/04/21 11:08:04;;;;;;;12.40;6.07;;;;;;;;;;5115974;28;20463;-83
2023/04/21 11:10:44;;;;;;;7.20;5.95;;;;;;;;;;5115863;28;20031;-84
2023/04/21 11:13:10;;;;;;;11.30;5.57;;;;;;;;;;5115389;28;20035;-84
2023/04/21 11:15:35;;;;;;;6.68;5.40;;;;;;;;;;5115688;28;20062;-84
2023/04/21 11:18:01;;;;;;;7.05;5.40;;;;;;;;;;5097432;28;20027;-84
2023/04/21 11:20:26;;;;;;;8.27;5.78;;;;;;;;;;5080269;28;20027;-84
2023/04/21 11:22:52;;;;;;;9.82;5.38;;;;;;;;;;5097644;28;20039;-83
2023/04/21 11:25:18;;;;;;;8.73;5.40;;;;;;;;;;5097416;28;20028;-83
2023/04/21 11:27:55;;;;;;;11.43;5.68;;;;;;;;;;5097124;28;20099;-83
2023/04/21 11:30:31;;;;;;;7.28;4.63;;;;;;;;;;5115221;28;20035;-83
2023/04/21 11:32:56;;;;;;;9.05;5.20;;;;;;;;;;5097155;28;20038;-84
2023/04/21 11:35:22;;;;;;;6.05;5.45;;;;;;;;;;5097042;28;20027;-83
2023/04/21 11:37:49;;;;;;;7.35;5.75;;;;;;;;;;5096829;28;20100;-84
2023/04/21 11:40:15;;;;;;;10.35;5.80;;;;;;;;;;5115438;28;20139;-84
2023/04/21 11:42:40;;;;;;;9.25;6.03;;;;;;;;;;5080653;28;20502;-84
2023/04/21 11:45:06;;;;;;;19.65;6.78;;;;;;;;;;5115915;28;20023;-84
2023/04/21 11:47:32;;;;;;;18.10;7.10;;;;;;;;;;5097481;28;20032;-82
2023/04/21 11:50:00;;;;;;;16.83;7.03;;;;;;;;;;5096495;28;20081;-82
2023/04/21 11:52:26;;;;;;;17.02;6.40;;;;;;;;;;5096592;28;20028;-82
2023/04/21 11:55:07;;;;;;;15.63;6.82;;;;;;;;;;5114827;28;20542;-82
2023/04/21 11:57:32;;;;;;;11.13;6.40;;;;;;;;;;5096657;28;20034;-81
2023/04/21 11:59:59;;;;;;;10.02;5.75;;;;;;;;;;5096487;28;20114;-82
2023/04/21 12:02:34;;;;;;;9.50;5.63;;;;;;;;;;5096836;28;20525;-81
2023/04/21 12:05:07;;;;;;;8.77;6.13;;;;;;;;;;5096339;28;20028;-82
2023/04/21 12:07:50;;;;;;;12.57;5.40;;;;;;;;;;5079714;28;20030;-84
2023/04/21 12:10:18;;;;;;;7.43;5.03;;;;;;;;;;5114815;28;20493;-84
2023/04/21 12:12:44;;;;;;;10.60;5.63;;;;;;;;;;5114389;28;20325;-83
2023/04/21 12:15:10;;;;;;;9.38;5.75;;;;;;;;;;5096312;28;20110;-83
2023/04/21 12:17:47;;;;;;;10.15;5.55;;;;;;;;;;5114565;28;20577;-83
2023/04/21 12:20:21;;;;;;;14.45;5.75;;;;;;;;;;5096201;28;20061;-83
2023/04/21 12:22:47;;;;;;;10.95;5.00;;;;;;;;;;5096796;28;20036;-82
2023/04/21 12:25:12;;;;;;;7.28;4.82;;;;;;;;;;5079006;28;20112;-83
2023/04/21 12:27:52;;;;;;;10.40;4.88;;;;;;;;;;5096079;28;20486;-83
2023/04/21 12:30:19;;;;;;;10.48;6.07;;;;;;;;;;5078930;28;20035;-84
2023/04/21 12:32:46;;;;;;;8.48;5.38;;;;;;;;;;5079004;28;20044;-84
2023/04/21 12:35:12;;;;;;;10.70;5.70;;;;;;;;;;5114019;28;20030;-84
2023/04/21 12:37:37;;;;;;;14.90;6.47;;;;;;;;;;5114112;28;20036;-84
2023/04/21 12:40:04;;;;;;;11.50;5.43;;;;;;;;;;5095930;28;20081;-84
2023/04/21 12:42:29;;;;;;;8.07;5.60;;;;;;;;;;5079357;28;20059;-84
2023/04/21 12:44:55;;;;;;;7.35;5.35;;;;;;;;;;5095697;28;20019;-84
2023/04/21 12:47:21;;;;;;;9.73;5.35;;;;;;;;;;5078944;28;20077;-81
2023/04/21 12:49:46;;;;;;;10.68;5.78;;;;;;;;;;5095980;28;20046;-81
2023/04/21 12:52:11;;;;;;;10.40;5.68;;;;;;;;;;5114362;28;20081;-84
2023/04/21 12:54:37;;;;;;;9.57;5.22;;;;;;;;;;5113985;28;20474;-84
2023/04/21 12:57:02;;;;;;;8.75;5.70;;;;;;;;;;5114188;28;20027;-84
2023/04/21 12:59:28;;;;;;;15.27;5.53;;;;;;;;;;5116188;28;20102;-84
2023/04/21 13:01:53;;;;;;;8.00;5.53;;;;;;;;;;5079125;28;20028;-84
2023/04/21 13:04:20;;;;;;;8.25;5.10;;;;;;;;;;5096064;28;20064;-84
2023/04/21 13:06:45;;;;;;;8.35;5.30;;;;;;;;;;5095499;28;20442;-84
2023/04/21 13:09:11;;;;;;;7.45;5.07;;;;;;;;;;5113620;28;20039;-83
2023/04/21 13:11:36;;;;;;;6.80;5.40;;;;;;;;;;5061862;28;20034;-83
2023/04/21 13:14:02;;;;;;;7.40;5.20;;;;;;;;;;5101617;28;20055;-83
2023/04/21 13:16:28;;;;;;;8.07;5.53;;;;;;;;;;5121037;28;20031;-84
2023/04/21 13:18:54;;;;;;;7.05;5.03;;;;;;;;;;5085031;28;20031;-84
2023/04/21 13:21:19;;;;;;;7.22;5.28;;;;;;;;;;5121112;28;20080;-83
2023/04/21 13:23:45;;;;;;;7.28;5.53;;;;;;;;;;5120332;28;20052;-84
2023/04/21 13:26:11;;;;;;;8.40;5.32;;;;;;;;;;5101960;28;20508;-84
2023/04/21 13:28:37;;;;;;;11.52;5.25;;;;;;;;;;5102622;28;20031;-83
2023/04/21 13:31:02;;;;;;;6.45;5.15;;;;;;;;;;5084909;28;20080;-84
2023/04/21 13:33:28;;;;;;;7.53;5.28;;;;;;;;;;5102375;28;20035;-83
2023/04/21 13:35:53;;;;;;;6.35;5.00;;;;;;;;;;5102099;28;20035;-83
2023/04/21 13:38:19;;;;;;;6.15;4.80;;;;;;;;;;5085258;28;20036;-83
2023/04/21 13:40:45;;;;;;;8.23;4.90;;;;;;;;;;5085172;28;20110;-83
2023/04/21 13:43:10;;;;;;;6.43;5.20;;;;;;;;;;5120242;28;20426;-84
2023/04/21 13:45:36;;;;;;;6.45;5.00;;;;;;;;;;5120486;28;20050;-84
2023/04/21 13:48:02;;;;;;;6.60;4.80;;;;;;;;;;5084973;28;20031;-83
2023/04/21 13:50:28;;;;;;;6.78;5.03;;;;;;;;;;5101955;28;20024;-83
2023/04/21 13:52:53;;;;;;;7.90;5.03;;;;;;;;;;5112218;28;20492;-83
2023/04/21 13:55:19;;;;;;;6.45;5.07;;;;;;;;;;5099701;28;20032;-84
2023/04/21 13:57:45;;;;;;;5.72;4.80;;;;;;;;;;5085280;28;20519;-83
2023/04/21 14:00:11;;;;;;;6.75;5.03;;;;;;;;;;5101733;28;20084;-83
2023/04/21 14:02:38;;;;;;;7.07;5.18;;;;;;;;;;5120170;28;20035;-83
2023/04/21 14:05:04;;;;;;;7.40;4.97;;;;;;;;;;5120175;28;20032;-83
2023/04/21 14:07:29;;;;;;;6.28;4.50;;;;;;;;;;5085009;28;20106;-83
2023/04/21 14:09:55;;;;;;;6.18;4.63;;;;;;;;;;5101769;28;20028;-83
2023/04/21 14:12:21;;;;;;;5.10;4.45;;;;;;;;;;5101709;28;20453;-83
2023/04/21 14:14:46;;;;;;;5.43;3.90;;;;;;;;;;5101547;28;20028;-83
2023/04/21 14:17:12;;;;;;;6.10;4.15;;;;;;;;;;5119774;28;20072;-83
2023/04/21 14:19:38;;;;;;;6.63;4.70;;;;;;;;;;5084706;28;20054;-84
2023/04/21 14:22:03;;;;;;;6.20;4.45;;;;;;;;;;5101635;28;20061;-83
2023/04/21 14:24:30;;;;;;;5.40;4.40;;;;;;;;;;5099935;28;20020;-83
2023/04/21 14:26:56;;;;;;;5.47;4.63;;;;;;;;;;5116551;28;20445;-82
2023/04/21 14:29:22;;;;;;;5.75;4.40;;;;;;;;;;5098517;28;20106;-84
2023/04/21 14:31:47;;;;;;;6.95;5.03;;;;;;;;;;5081285;28;20036;-84
2023/04/21 14:34:13;;;;;;;5.05;4.20;;;;;;;;;;5116514;28;20069;-84
2023/04/21 14:36:38;;;;;;;5.70;4.30;;;;;;;;;;5081502;28;20077;-85